createdAt,value
2023-05-02T00:00:03.352Z,37.48
2023-05-02T00:01:03.085Z,37.50
2023-05-02T00:02:03.104Z,37.47
2023-05-02T00:03:03.165Z,37.51
2023-05-02T00:04:03.172Z,37.50
2023-05-02T00:05:04.028Z,37.52
2023-05-02T00:06:03.111Z,37.47
2023-05-02T00:07:03.046Z,37.49
2023-05-02T00:08:04.051Z,37.49
2023-05-02T00:09:03.132Z,37.45
2023-05-02T00:10:03.422Z,37.49
2023-05-02T00:11:03.086Z,37.49
2023-05-02T00:12:03.102Z,37.49
2023-05-02T00:13:04.095Z,37.50
2023-05-02T00:14:03.171Z,37.47
2023-05-02T00:15:03.167Z,37.50
2023-05-02T00:16:04.117Z,37.50
2023-05-02T00:17:03.185Z,37.47
2023-05-02T00:18:04.181Z,37.46
2023-05-02T00:19:04.137Z,37.49
2023-05-02T00:20:04.215Z,37.51
2023-05-02T00:21:03.149Z,37.46
2023-05-02T00:22:04.158Z,37.46
2023-05-02T00:23:03.185Z,37.45
2023-05-02T00:24:04.189Z,37.49
2023-05-02T00:25:04.196Z,37.50
2023-05-02T00:26:04.203Z,37.47
2023-05-02T00:27:04.188Z,37.46
2023-05-02T00:28:03.215Z,37.49
2023-05-02T00:29:04.210Z,37.50
2023-05-02T00:30:03.476Z,37.50
2023-05-02T00:31:03.342Z,37.47
2023-05-02T00:32:04.244Z,37.47
2023-05-02T00:33:04.348Z,37.45
2023-05-02T00:34:04.289Z,37.52
2023-05-02T00:35:04.309Z,37.52
2023-05-02T00:36:04.307Z,37.48
2023-05-02T00:37:04.361Z,37.50
2023-05-02T00:38:04.298Z,37.49
2023-05-02T00:39:04.326Z,37.47
2023-05-02T00:40:04.329Z,37.49
2023-05-02T00:41:04.335Z,37.46
2023-05-02T00:42:04.370Z,37.46
2023-05-02T00:43:03.357Z,37.46
2023-05-02T00:44:03.384Z,37.50
2023-05-02T00:45:04.414Z,37.47
2023-05-02T00:46:03.415Z,37.51
2023-05-02T00:47:04.420Z,37.47
2023-05-02T00:48:03.425Z,37.47
2023-05-02T00:49:03.398Z,37.50
2023-05-02T00:50:04.447Z,37.48
2023-05-02T00:51:04.432Z,37.50
2023-05-02T00:52:03.463Z,37.47
2023-05-02T00:53:04.485Z,37.46
2023-05-02T00:54:03.481Z,37.46
2023-05-02T00:55:04.537Z,37.49
2023-05-02T00:56:03.704Z,37.50
2023-05-02T00:57:03.529Z,37.51
2023-05-02T00:58:04.517Z,37.43
2023-05-02T00:59:04.548Z,37.48
2023-05-02T01:00:04.614Z,37.46
2023-05-02T01:01:03.610Z,37.48
2023-05-02T01:02:03.631Z,37.46
2023-05-02T01:03:05.453Z,37.49
2023-05-02T01:04:04.763Z,37.45
2023-05-02T01:05:03.667Z,37.46
2023-05-02T01:06:04.774Z,37.47
2023-05-02T01:07:04.708Z,37.47
2023-05-02T01:08:03.682Z,37.48
2023-05-02T01:09:04.728Z,37.46
2023-05-02T01:10:04.785Z,37.45
2023-05-02T01:11:05.311Z,37.47
2023-05-02T01:12:04.747Z,37.45
2023-05-02T01:13:04.766Z,37.50
2023-05-02T01:14:04.780Z,37.51
2023-05-02T01:15:03.780Z,37.48
2023-05-02T01:16:03.864Z,37.50
2023-05-02T01:17:04.823Z,37.49
2023-05-02T01:18:04.891Z,37.48
2023-05-02T01:19:03.856Z,37.51
2023-05-02T01:20:03.923Z,37.48
2023-05-02T01:21:04.849Z,37.47
2023-05-02T01:22:04.859Z,37.47
2023-05-02T01:23:04.887Z,37.50
2023-05-02T01:24:03.855Z,37.48
2023-05-02T01:25:04.891Z,37.44
2023-05-02T01:26:03.882Z,37.42
2023-05-02T01:27:03.908Z,37.44
2023-05-02T01:28:04.917Z,37.47
2023-05-02T01:29:04.932Z,37.48
2023-05-02T01:30:04.978Z,37.49
2023-05-02T01:31:03.961Z,37.47
2023-05-02T01:32:05.017Z,37.48
2023-05-02T01:33:05.017Z,37.50
2023-05-02T01:34:05.014Z,37.47
2023-05-02T01:35:05.077Z,37.47
2023-05-02T01:36:05.075Z,37.44
2023-05-02T01:37:05.025Z,37.43
2023-05-02T01:38:04.050Z,37.48
2023-05-02T01:39:05.075Z,37.47
2023-05-02T01:40:04.108Z,37.50
2023-05-02T01:41:05.087Z,37.48
2023-05-02T01:42:04.118Z,37.45
2023-05-02T01:43:04.108Z,37.48
2023-05-02T01:44:04.119Z,37.48
2023-05-02T01:45:04.135Z,37.47
2023-05-02T01:46:05.144Z,37.46
2023-05-02T01:47:04.164Z,37.44
2023-05-02T01:48:04.202Z,37.46
2023-05-02T01:49:04.191Z,37.44
2023-05-02T01:50:05.206Z,37.48
2023-05-02T01:51:05.207Z,37.51
2023-05-02T01:52:05.192Z,37.50
2023-05-02T01:53:04.206Z,37.48
2023-05-02T01:54:04.208Z,37.46
2023-05-02T01:55:05.245Z,37.52
2023-05-02T01:56:04.212Z,37.43
2023-05-02T01:57:05.219Z,37.43
2023-05-02T01:58:05.228Z,37.46
2023-05-02T01:59:05.223Z,37.48
2023-05-02T02:00:05.341Z,37.48
2023-05-02T02:01:05.969Z,37.48
2023-05-02T02:02:04.268Z,37.47
2023-05-02T02:03:05.283Z,37.50
2023-05-02T02:04:05.643Z,37.47
2023-05-02T02:05:05.301Z,37.44
2023-05-02T02:06:04.395Z,37.43
2023-05-02T02:07:05.314Z,37.43
2023-05-02T02:08:05.309Z,37.44
2023-05-02T02:09:05.329Z,37.46
2023-05-02T02:10:05.385Z,37.50
2023-05-02T02:11:04.368Z,37.46
2023-05-02T02:12:05.358Z,37.50
2023-05-02T02:13:04.372Z,37.48
2023-05-02T02:14:05.395Z,37.43
2023-05-02T02:15:05.412Z,37.48
2023-05-02T02:16:05.414Z,37.45
2023-05-02T02:17:04.493Z,37.46
2023-05-02T02:18:04.487Z,37.49
2023-05-02T02:19:05.453Z,37.44
2023-05-02T02:20:05.499Z,37.46
2023-05-02T02:21:05.458Z,37.50
2023-05-02T02:22:04.469Z,37.47
2023-05-02T02:23:05.492Z,37.47
2023-05-02T02:24:05.482Z,37.51
2023-05-02T02:25:05.503Z,37.44
2023-05-02T02:26:05.493Z,37.48
2023-05-02T02:27:05.487Z,37.46
2023-05-02T02:28:04.511Z,37.44
2023-05-02T02:29:04.561Z,37.44
2023-05-02T02:30:04.528Z,37.46
2023-05-02T02:31:05.611Z,37.45
2023-05-02T02:32:04.576Z,37.44
2023-05-02T02:33:04.577Z,37.47
2023-05-02T02:34:04.576Z,37.45
2023-05-02T02:35:04.540Z,37.44
2023-05-02T02:36:04.576Z,37.48
2023-05-02T02:37:04.589Z,37.48
2023-05-02T02:38:05.575Z,37.46
2023-05-02T02:39:05.594Z,37.44
2023-05-02T02:40:05.597Z,37.44
2023-05-02T02:41:04.620Z,37.48
2023-05-02T02:42:05.635Z,37.44
2023-05-02T02:43:05.616Z,37.43
2023-05-02T02:44:04.610Z,37.47
2023-05-02T02:45:04.691Z,37.44
2023-05-02T02:46:05.725Z,37.39
2023-05-02T02:47:05.672Z,37.46
2023-05-02T02:48:04.690Z,37.43
2023-05-02T02:49:04.665Z,37.44
2023-05-02T02:50:05.668Z,37.43
2023-05-02T02:51:04.686Z,37.48
2023-05-02T02:52:05.681Z,37.46
2023-05-02T02:53:05.733Z,37.43
2023-05-02T02:54:15.491Z,37.48
2023-05-02T02:55:05.732Z,37.47
2023-05-02T02:56:04.688Z,37.44
2023-05-02T02:57:05.671Z,37.45
2023-05-02T02:58:05.691Z,37.44
2023-05-02T02:59:04.673Z,37.48
2023-05-02T03:00:05.678Z,37.49
2023-05-02T03:01:05.650Z,37.41
2023-05-02T03:02:04.667Z,37.44
2023-05-02T03:03:05.642Z,37.47
2023-05-02T03:04:05.669Z,37.41
2023-05-02T03:05:05.620Z,37.43
2023-05-02T03:06:05.705Z,37.45
2023-05-02T03:07:04.630Z,37.44
2023-05-02T03:08:04.612Z,37.44
2023-05-02T03:09:04.620Z,37.46
2023-05-02T03:10:04.613Z,37.44
2023-05-02T03:11:04.607Z,37.43
2023-05-02T03:12:04.569Z,37.41
2023-05-02T03:13:04.570Z,37.43
2023-05-02T03:14:04.576Z,37.47
2023-05-02T03:15:05.553Z,37.43
2023-05-02T03:16:05.592Z,37.47
2023-05-02T03:17:05.584Z,37.45
2023-05-02T03:18:04.570Z,37.43
2023-05-02T03:19:04.514Z,37.50
2023-05-02T03:20:05.507Z,37.45
2023-05-02T03:21:04.510Z,37.45
2023-05-02T03:22:05.524Z,37.46
2023-05-02T03:23:05.506Z,37.44
2023-05-02T03:24:04.561Z,37.45
2023-05-02T03:25:04.475Z,37.41
2023-05-02T03:26:05.482Z,37.44
2023-05-02T03:27:05.530Z,37.46
2023-05-02T03:28:04.448Z,37.45
2023-05-02T03:29:04.465Z,37.47
2023-05-02T03:30:05.464Z,37.47
2023-05-02T03:31:05.503Z,37.46
2023-05-02T03:32:05.549Z,37.44
2023-05-02T03:33:04.458Z,37.44
2023-05-02T03:34:04.415Z,37.47
2023-05-02T03:35:05.424Z,37.46
2023-05-02T03:36:05.432Z,37.45
2023-05-02T03:37:05.408Z,37.44
2023-05-02T03:38:04.441Z,37.44
2023-05-02T03:39:04.399Z,37.41
2023-05-02T03:40:05.383Z,37.43
2023-05-02T03:41:05.377Z,37.45
2023-05-02T03:42:04.377Z,37.43
2023-05-02T03:43:04.368Z,37.43
2023-05-02T03:44:05.364Z,37.43
2023-05-02T03:45:04.385Z,37.46
2023-05-02T03:46:05.345Z,37.44
2023-05-02T03:47:05.465Z,37.43
2023-05-02T03:48:04.388Z,37.45
2023-05-02T03:49:05.731Z,37.43
2023-05-02T03:50:05.320Z,37.43
2023-05-02T03:51:05.304Z,37.45
2023-05-02T03:52:05.300Z,37.44
2023-05-02T03:53:05.320Z,37.45
2023-05-02T03:54:05.280Z,37.48
2023-05-02T03:55:05.260Z,37.41
2023-05-02T03:56:05.265Z,37.43
2023-05-02T03:57:05.261Z,37.45
2023-05-02T03:58:05.262Z,37.46
2023-05-02T03:59:04.273Z,37.44
2023-05-02T04:00:04.255Z,37.45
2023-05-02T04:01:05.222Z,37.44
2023-05-02T04:02:05.285Z,37.44
2023-05-02T04:03:05.306Z,37.47
2023-05-02T04:04:05.276Z,37.44
2023-05-02T04:05:05.253Z,37.45
2023-05-02T04:06:05.303Z,37.49
2023-05-02T04:07:05.200Z,37.45
2023-05-02T04:08:05.182Z,37.44
2023-05-02T04:09:05.178Z,37.49
2023-05-02T04:10:05.165Z,37.45
2023-05-02T04:11:04.175Z,37.45
2023-05-02T04:12:04.158Z,37.48
2023-05-02T04:13:05.164Z,37.46
2023-05-02T04:14:05.171Z,37.46
2023-05-02T04:15:04.291Z,37.45
2023-05-02T04:16:04.204Z,37.45
2023-05-02T04:17:04.381Z,37.45
2023-05-02T04:18:04.387Z,37.45
2023-05-02T04:19:05.209Z,37.47
2023-05-02T04:20:05.498Z,37.45
2023-05-02T04:21:05.243Z,37.46
2023-05-02T04:22:05.244Z,37.44
2023-05-02T04:23:05.276Z,37.45
2023-05-02T04:24:04.275Z,37.45
2023-05-02T04:25:04.284Z,37.45
2023-05-02T04:26:05.303Z,37.48
2023-05-02T04:27:04.335Z,37.44
2023-05-02T04:28:04.324Z,37.48
2023-05-02T04:29:05.328Z,37.45
2023-05-02T04:30:04.340Z,37.48
2023-05-02T04:31:05.470Z,37.52
2023-05-02T04:32:05.416Z,37.51
2023-05-02T04:33:04.402Z,37.44
2023-05-02T04:34:05.447Z,37.41
2023-05-02T04:35:04.431Z,37.47
2023-05-02T04:36:05.525Z,37.46
2023-05-02T04:37:05.436Z,37.44
2023-05-02T04:38:05.481Z,37.45
2023-05-02T04:39:04.496Z,37.48
2023-05-02T04:40:05.531Z,37.47
2023-05-02T04:41:08.905Z,37.45
2023-05-02T04:42:04.519Z,37.45
2023-05-02T04:43:05.551Z,37.51
2023-05-02T04:44:05.520Z,37.45
2023-05-02T04:45:05.484Z,37.46
2023-05-02T04:46:05.515Z,37.44
2023-05-02T04:47:04.547Z,37.45
2023-05-02T04:48:05.514Z,37.50
2023-05-02T04:49:05.465Z,37.41
2023-05-02T04:50:05.477Z,37.44
2023-05-02T04:51:05.453Z,37.45
2023-05-02T04:52:05.439Z,37.44
2023-05-02T04:53:05.444Z,37.45
2023-05-02T04:54:05.462Z,37.45
2023-05-02T04:55:05.438Z,37.44
2023-05-02T04:56:05.442Z,37.46
2023-05-02T04:57:04.450Z,37.44
2023-05-02T04:58:05.405Z,37.40
2023-05-02T04:59:05.402Z,37.45
2023-05-02T05:00:05.395Z,37.44
2023-05-02T05:01:05.453Z,37.45
2023-05-02T05:02:04.584Z,37.43
2023-05-02T05:03:04.604Z,37.40
2023-05-02T05:04:04.536Z,37.48
2023-05-02T05:05:04.583Z,37.48
2023-05-02T05:06:04.570Z,37.41
2023-05-02T05:07:05.900Z,37.48
2023-05-02T05:08:05.515Z,37.43
2023-05-02T05:09:05.546Z,37.44
2023-05-02T05:10:05.570Z,37.40
2023-05-02T05:11:04.568Z,37.40
2023-05-02T05:12:06.271Z,37.40
2023-05-02T05:13:06.356Z,37.60
2023-05-02T05:14:05.806Z,37.40
2023-05-02T05:15:05.712Z,37.39
2023-05-02T05:16:05.712Z,37.36
2023-05-02T05:17:04.664Z,37.39
2023-05-02T05:18:05.771Z,37.45
2023-05-02T05:19:05.713Z,37.45
2023-05-02T05:20:04.754Z,37.41
2023-05-02T05:21:04.762Z,37.42
2023-05-02T05:22:04.813Z,37.46
2023-05-02T05:23:05.832Z,37.46
2023-05-02T05:24:04.913Z,37.44
2023-05-02T05:25:05.004Z,37.45
2023-05-02T05:26:05.916Z,37.57
2023-05-02T05:27:05.961Z,37.51
2023-05-02T05:28:05.010Z,37.60
2023-05-02T05:29:06.098Z,37.63
2023-05-02T05:30:05.056Z,37.68
2023-05-02T05:31:06.154Z,37.77
2023-05-02T05:32:06.384Z,37.97
2023-05-02T05:33:05.253Z,38.20
2023-05-02T05:34:06.305Z,38.47
2023-05-02T05:35:07.492Z,38.32
2023-05-02T05:36:06.698Z,38.63
2023-05-02T05:37:05.519Z,38.58
2023-05-02T05:38:06.469Z,38.52
2023-05-02T05:39:06.819Z,38.49
2023-05-02T05:40:07.985Z,38.67
2023-05-02T05:41:06.856Z,38.54
2023-05-02T05:42:07.624Z,38.57
2023-05-02T05:43:07.008Z,38.56
2023-05-02T05:44:06.720Z,38.81
2023-05-02T05:45:07.036Z,39.42
2023-05-02T05:46:07.202Z,39.48
2023-05-02T05:47:05.797Z,39.66
2023-05-02T05:48:06.721Z,39.57
2023-05-02T05:49:07.220Z,39.48
2023-05-02T05:50:06.822Z,39.54
2023-05-02T05:51:06.779Z,39.62
2023-05-02T05:52:07.661Z,39.88
2023-05-02T05:53:06.710Z,40.14
2023-05-02T05:54:06.535Z,40.34
2023-05-02T05:55:06.388Z,40.26
2023-05-02T05:56:07.580Z,40.12
2023-05-02T05:57:06.713Z,40.54
2023-05-02T05:58:06.705Z,40.37
2023-05-02T05:59:06.964Z,40.44
2023-05-02T06:00:06.662Z,40.79
2023-05-02T06:01:07.682Z,40.74
2023-05-02T06:02:07.838Z,40.73
2023-05-02T06:03:08.083Z,40.64
2023-05-02T06:04:05.832Z,40.55
2023-05-02T06:05:07.261Z,40.38
2023-05-02T06:06:06.786Z,40.19
2023-05-02T06:07:05.714Z,40.05
2023-05-02T06:08:06.695Z,40.04
2023-05-02T06:09:05.701Z,39.96
2023-05-02T06:10:05.751Z,39.91
2023-05-02T06:11:05.653Z,39.84
2023-05-02T06:12:06.683Z,39.81
2023-05-02T06:13:06.677Z,39.76
2023-05-02T06:14:05.656Z,39.73
2023-05-02T06:15:05.657Z,39.66
2023-05-02T06:16:05.682Z,39.64
2023-05-02T06:17:06.633Z,39.61
2023-05-02T06:18:06.646Z,39.56
2023-05-02T06:19:12.622Z,39.59
2023-05-02T06:20:05.581Z,39.55
2023-05-02T06:21:05.631Z,39.58
2023-05-02T06:22:05.638Z,39.54
2023-05-02T06:23:06.574Z,39.53
2023-05-02T06:24:06.558Z,39.52
2023-05-02T06:25:06.587Z,39.50
2023-05-02T06:26:05.599Z,39.49
2023-05-02T06:27:05.564Z,39.47
2023-05-02T06:28:05.537Z,39.43
2023-05-02T06:29:05.541Z,39.43
2023-05-02T06:30:06.531Z,39.41
2023-05-02T06:31:05.553Z,39.46
2023-05-02T06:32:06.720Z,39.41
2023-05-02T06:33:06.533Z,39.36
2023-05-02T06:34:06.502Z,39.41
2023-05-02T06:35:06.502Z,39.37
2023-05-02T06:36:06.478Z,39.38
2023-05-02T06:37:06.483Z,39.38
2023-05-02T06:38:06.487Z,39.69
2023-05-02T06:39:05.461Z,39.58
2023-05-02T06:40:05.480Z,39.63
2023-05-02T06:41:05.461Z,39.57
2023-05-02T06:42:06.451Z,39.53
2023-05-02T06:43:05.430Z,39.48
2023-05-02T06:44:05.424Z,39.38
2023-05-02T06:45:05.412Z,39.42
2023-05-02T06:46:05.409Z,39.54
2023-05-02T06:47:06.484Z,39.61
2023-05-02T06:48:06.447Z,39.54
2023-05-02T06:49:06.400Z,39.47
2023-05-02T06:50:06.377Z,39.47
2023-05-02T06:51:05.390Z,40.41
2023-05-02T06:52:05.487Z,40.77
2023-05-02T06:53:06.362Z,40.89
2023-05-02T06:54:06.400Z,41.48
2023-05-02T06:55:06.349Z,42.47
2023-05-02T06:56:06.341Z,42.95
2023-05-02T06:57:05.500Z,42.90
2023-05-02T06:58:06.337Z,42.68
2023-05-02T06:59:06.329Z,43.38
2023-05-02T07:00:06.310Z,43.03
2023-05-02T07:01:06.385Z,43.09
2023-05-02T07:02:06.376Z,42.45
2023-05-02T07:03:06.452Z,41.80
2023-05-02T07:04:06.489Z,41.47
2023-05-02T07:05:05.467Z,41.08
2023-05-02T07:06:06.589Z,40.74
2023-05-02T07:07:06.560Z,40.49
2023-05-02T07:08:06.568Z,40.34
2023-05-02T07:09:06.619Z,40.19
2023-05-02T07:10:05.642Z,40.15
2023-05-02T07:11:05.615Z,40.10
2023-05-02T07:12:06.953Z,40.04
2023-05-02T07:13:05.662Z,40.03
2023-05-02T07:14:06.674Z,40.04
2023-05-02T07:15:06.680Z,40.00
2023-05-02T07:16:05.706Z,39.84
2023-05-02T07:17:05.831Z,39.84
2023-05-02T07:18:05.767Z,39.95
2023-05-02T07:19:05.751Z,39.71
2023-05-02T07:20:05.915Z,39.88
2023-05-02T07:21:06.816Z,39.93
2023-05-02T07:22:05.852Z,40.37
2023-05-02T07:23:06.894Z,40.10
2023-05-02T07:24:06.960Z,40.27
2023-05-02T07:25:06.947Z,40.16
2023-05-02T07:26:07.043Z,39.92
2023-05-02T07:27:07.040Z,39.94
2023-05-02T07:28:07.081Z,39.97
2023-05-02T07:29:07.115Z,39.77
2023-05-02T07:30:06.151Z,39.75
2023-05-02T07:31:07.223Z,40.42
2023-05-02T07:32:07.346Z,40.88
2023-05-02T07:33:07.367Z,41.21
2023-05-02T07:34:06.363Z,41.10
2023-05-02T07:35:06.392Z,40.63
2023-05-02T07:36:07.452Z,40.42
2023-05-02T07:37:06.508Z,40.18
2023-05-02T07:38:06.562Z,40.24
2023-05-02T07:39:06.643Z,40.19
2023-05-02T07:40:07.680Z,40.45
2023-05-02T07:41:06.719Z,40.12
2023-05-02T07:42:07.808Z,40.24
2023-05-02T07:43:09.876Z,40.13
2023-05-02T07:44:07.823Z,40.09
2023-05-02T07:45:07.831Z,40.29
2023-05-02T07:46:06.936Z,40.85
2023-05-02T07:47:06.795Z,42.00
2023-05-02T07:48:07.060Z,42.38
2023-05-02T07:49:07.792Z,42.92
2023-05-02T07:50:07.790Z,44.05
2023-05-02T07:51:07.796Z,44.49
2023-05-02T07:52:07.789Z,44.48
2023-05-02T07:53:08.017Z,46.13
2023-05-02T07:54:07.754Z,46.70
2023-05-02T07:55:07.750Z,46.14
2023-05-02T07:56:06.737Z,45.23
2023-05-02T07:57:07.739Z,44.02
2023-05-02T07:58:06.821Z,43.45
2023-05-02T07:59:07.734Z,43.37
2023-05-02T08:00:07.727Z,43.31
2023-05-02T08:01:07.736Z,43.04
2023-05-02T08:02:07.745Z,42.49
2023-05-02T08:03:07.823Z,42.34
2023-05-02T08:04:07.866Z,41.84
2023-05-02T08:05:07.859Z,41.83
2023-05-02T08:06:07.797Z,41.42
2023-05-02T08:07:06.660Z,49.35
2023-05-02T08:08:07.653Z,49.59
2023-05-02T08:09:07.662Z,47.44
2023-05-02T08:10:07.625Z,46.64
2023-05-02T08:11:06.647Z,46.44
2023-05-02T08:12:06.699Z,46.35
2023-05-02T08:13:06.768Z,45.95
2023-05-02T08:14:06.829Z,45.74
2023-05-02T08:15:07.871Z,45.65
2023-05-02T08:16:06.983Z,44.88
2023-05-02T08:17:07.997Z,44.15
2023-05-02T08:18:08.080Z,43.52
2023-05-02T08:19:08.108Z,43.17
2023-05-02T08:20:07.148Z,42.78
2023-05-02T08:21:07.187Z,42.70
2023-05-02T08:22:08.245Z,42.43
2023-05-02T08:23:07.313Z,42.46
2023-05-02T08:24:07.381Z,42.42
2023-05-02T08:25:07.439Z,42.42
2023-05-02T08:26:07.466Z,42.04
2023-05-02T08:27:08.536Z,42.00
2023-05-02T08:28:08.582Z,41.54
2023-05-02T08:29:07.634Z,41.44
2023-05-02T08:30:08.019Z,41.23
2023-05-02T08:31:08.814Z,41.03
2023-05-02T08:32:08.826Z,41.21
2023-05-02T08:33:07.893Z,41.06
2023-05-02T08:34:08.906Z,41.15
2023-05-02T08:35:08.983Z,41.04
2023-05-02T08:36:09.029Z,41.00
2023-05-02T08:37:09.104Z,41.23
2023-05-02T08:38:09.137Z,41.04
2023-05-02T08:39:09.204Z,40.96
2023-05-02T08:40:08.242Z,40.81
2023-05-02T08:41:09.296Z,41.69
2023-05-02T08:42:09.328Z,42.59
2023-05-02T08:43:09.541Z,43.57
2023-05-02T08:44:09.393Z,46.15
2023-05-02T08:45:09.435Z,47.65
2023-05-02T08:46:08.496Z,48.29
2023-05-02T08:47:11.618Z,48.83
2023-05-02T08:48:09.570Z,48.32
2023-05-02T08:49:08.468Z,48.09
2023-05-02T08:50:08.459Z,47.96
2023-05-02T08:51:08.444Z,47.52
2023-05-02T08:52:09.442Z,47.51
2023-05-02T08:53:08.450Z,46.86
2023-05-02T08:54:09.422Z,45.45
2023-05-02T08:55:09.429Z,46.50
2023-05-02T08:56:08.415Z,46.71
2023-05-02T08:57:09.402Z,46.48
2023-05-02T08:58:09.589Z,46.42
2023-05-02T08:59:08.400Z,46.26
2023-05-02T09:00:08.383Z,47.16
2023-05-02T09:01:09.409Z,46.53
2023-05-02T09:02:08.382Z,46.33
2023-05-02T09:03:09.419Z,45.93
2023-05-02T09:04:09.389Z,45.28
2023-05-02T09:05:08.359Z,44.65
2023-05-02T09:06:09.401Z,44.25
2023-05-02T09:07:08.727Z,43.96
2023-05-02T09:08:09.322Z,43.78
2023-05-02T09:09:09.310Z,43.47
2023-05-02T09:10:09.304Z,43.25
2023-05-02T09:11:08.300Z,43.06
2023-05-02T09:12:08.303Z,42.81
2023-05-02T09:13:09.277Z,42.68
2023-05-02T09:14:09.262Z,42.52
2023-05-02T09:15:08.289Z,42.43
2023-05-02T09:16:09.281Z,42.30
2023-05-02T09:17:09.475Z,42.21
2023-05-02T09:18:09.330Z,42.12
2023-05-02T09:19:08.245Z,41.95
2023-05-02T09:20:09.223Z,42.05
2023-05-02T09:21:09.220Z,41.99
2023-05-02T09:22:08.219Z,41.86
2023-05-02T09:23:08.203Z,41.83
2023-05-02T09:24:09.203Z,41.81
2023-05-02T09:25:08.194Z,41.78
2023-05-02T09:26:09.189Z,41.70
2023-05-02T09:27:09.196Z,41.75
2023-05-02T09:28:09.214Z,41.67
2023-05-02T09:29:09.226Z,41.62
2023-05-02T09:30:09.249Z,41.53
2023-05-02T09:31:09.365Z,41.52
2023-05-02T09:32:09.357Z,41.60
2023-05-02T09:33:08.347Z,41.52
2023-05-02T09:34:08.622Z,41.40
2023-05-02T09:35:09.330Z,41.52
2023-05-02T09:36:08.390Z,41.71
2023-05-02T09:37:09.381Z,41.54
2023-05-02T09:38:08.394Z,41.63
2023-05-02T09:39:08.411Z,41.58
2023-05-02T09:40:08.441Z,41.78
2023-05-02T09:41:08.446Z,41.87
2023-05-02T09:42:09.476Z,41.58
2023-05-02T09:43:09.492Z,41.47
2023-05-02T09:44:09.517Z,41.41
2023-05-02T09:45:08.542Z,41.50
2023-05-02T09:46:08.599Z,41.77
2023-05-02T09:47:09.621Z,44.08
2023-05-02T09:48:09.069Z,45.20
2023-05-02T09:49:09.735Z,45.54
2023-05-02T09:50:09.797Z,45.52
2023-05-02T09:51:08.735Z,45.24
2023-05-02T09:52:08.824Z,45.45
2023-05-02T09:53:09.904Z,45.06
2023-05-02T09:54:09.799Z,44.93
2023-05-02T09:55:08.833Z,44.91
2023-05-02T09:56:08.913Z,45.57
2023-05-02T09:57:08.963Z,45.21
2023-05-02T09:58:09.046Z,44.81
2023-05-02T09:59:09.041Z,44.37
2023-05-02T10:00:10.084Z,43.89
2023-05-02T10:01:09.144Z,43.55
2023-05-02T10:02:09.159Z,43.26
2023-05-02T10:03:10.246Z,43.14
2023-05-02T10:04:10.275Z,43.18
2023-05-02T10:05:10.259Z,42.89
2023-05-02T10:06:10.359Z,42.70
2023-05-02T10:07:09.342Z,42.59
2023-05-02T10:08:09.366Z,42.47
2023-05-02T10:09:10.367Z,42.41
2023-05-02T10:10:10.379Z,42.40
2023-05-02T10:11:10.410Z,42.20
2023-05-02T10:12:10.444Z,42.10
2023-05-02T10:13:10.561Z,41.96
2023-05-02T10:14:09.474Z,41.97
2023-05-02T10:15:09.504Z,42.05
2023-05-02T10:16:09.573Z,41.85
2023-05-02T10:17:09.534Z,41.80
2023-05-02T10:18:10.627Z,41.98
2023-05-02T10:19:10.584Z,41.85
2023-05-02T10:20:10.624Z,42.01
2023-05-02T10:21:09.629Z,41.94
2023-05-02T10:22:10.676Z,42.00
2023-05-02T10:23:09.672Z,41.93
2023-05-02T10:24:10.691Z,41.89
2023-05-02T10:25:10.730Z,41.89
2023-05-02T10:26:10.731Z,41.95
2023-05-02T10:27:10.768Z,41.84
2023-05-02T10:28:10.782Z,41.95
2023-05-02T10:29:10.832Z,41.81
2023-05-02T10:30:10.831Z,41.77
2023-05-02T10:31:09.877Z,41.71
2023-05-02T10:32:10.838Z,41.64
2023-05-02T10:33:10.918Z,41.60
2023-05-02T10:34:10.884Z,41.48
2023-05-02T10:35:10.890Z,41.47
2023-05-02T10:36:10.918Z,41.40
2023-05-02T10:37:09.935Z,41.44
2023-05-02T10:38:10.961Z,41.44
2023-05-02T10:39:10.920Z,41.39
2023-05-02T10:40:10.921Z,42.33
2023-05-02T10:41:09.949Z,43.64
2023-05-02T10:42:11.002Z,43.58
2023-05-02T10:43:10.066Z,43.23
2023-05-02T10:44:11.597Z,43.28
2023-05-02T10:45:11.226Z,43.08
2023-05-02T10:46:10.272Z,42.85
2023-05-02T10:47:11.304Z,42.79
2023-05-02T10:48:10.409Z,42.84
2023-05-02T10:49:10.392Z,42.66
2023-05-02T10:50:10.396Z,42.58
2023-05-02T10:51:11.428Z,42.29
2023-05-02T10:52:10.473Z,42.34
2023-05-02T10:53:10.488Z,42.12
2023-05-02T10:54:11.534Z,42.42
2023-05-02T10:55:10.561Z,42.16
2023-05-02T10:56:11.579Z,42.12
2023-05-02T10:57:11.606Z,41.98
2023-05-02T10:58:11.633Z,42.29
2023-05-02T10:59:11.678Z,42.07
2023-05-02T11:00:11.693Z,42.44
2023-05-02T11:01:11.792Z,42.28
2023-05-02T11:02:11.845Z,42.28
2023-05-02T11:03:11.987Z,42.47
2023-05-02T11:04:11.839Z,42.21
2023-05-02T11:05:11.881Z,42.20
2023-05-02T11:06:10.934Z,42.11
2023-05-02T11:07:11.933Z,42.03
2023-05-02T11:08:11.963Z,42.03
2023-05-02T11:09:10.970Z,41.91
2023-05-02T11:10:12.046Z,41.66
2023-05-02T11:11:12.015Z,41.87
2023-05-02T11:12:12.031Z,41.83
2023-05-02T11:13:11.089Z,41.85
2023-05-02T11:14:11.103Z,41.76
2023-05-02T11:15:14.162Z,41.73
2023-05-02T11:16:12.195Z,41.67
2023-05-02T11:17:12.148Z,42.59
2023-05-02T11:18:12.228Z,42.47
2023-05-02T11:19:12.113Z,42.37
2023-05-02T11:20:12.117Z,42.43
2023-05-02T11:21:12.095Z,42.30
2023-05-02T11:22:12.096Z,42.30
2023-05-02T11:23:12.099Z,42.18
2023-05-02T11:24:12.085Z,42.04
2023-05-02T11:25:12.053Z,42.12
2023-05-02T11:26:12.128Z,42.06
2023-05-02T11:27:12.050Z,41.96
2023-05-02T11:28:12.036Z,41.79
2023-05-02T11:29:12.040Z,41.85
2023-05-02T11:30:12.040Z,41.81
2023-05-02T11:31:12.018Z,42.00
2023-05-02T11:32:12.058Z,41.98
2023-05-02T11:33:12.112Z,42.17
2023-05-02T11:34:11.010Z,42.21
2023-05-02T11:35:11.978Z,42.37
2023-05-02T11:36:11.993Z,42.94
2023-05-02T11:37:10.965Z,42.40
2023-05-02T11:38:11.977Z,42.68
2023-05-02T11:39:12.100Z,42.94
2023-05-02T11:40:11.993Z,42.96
2023-05-02T11:41:11.948Z,43.37
2023-05-02T11:42:11.961Z,43.82
2023-05-02T11:43:11.949Z,43.62
2023-05-02T11:44:11.942Z,43.27
2023-05-02T11:45:11.919Z,43.06
2023-05-02T11:46:10.922Z,43.06
2023-05-02T11:47:11.949Z,42.80
2023-05-02T11:48:11.974Z,42.54
2023-05-02T11:49:12.724Z,42.42
2023-05-02T11:50:11.920Z,42.25
2023-05-02T11:51:10.897Z,42.05
2023-05-02T11:52:10.986Z,42.00
2023-05-02T11:53:10.878Z,42.12
2023-05-02T11:54:11.877Z,42.21
2023-05-02T11:55:11.920Z,42.23
2023-05-02T11:56:10.866Z,42.09
2023-05-02T11:57:10.865Z,42.14
2023-05-02T11:58:10.856Z,42.09
2023-05-02T11:59:11.820Z,42.00
2023-05-02T12:00:11.870Z,41.93
2023-05-02T12:01:11.807Z,41.90
2023-05-02T12:02:11.902Z,41.95
2023-05-02T12:03:10.910Z,42.00
2023-05-02T12:04:10.829Z,42.07
2023-05-02T12:05:11.887Z,42.11
2023-05-02T12:06:11.070Z,42.12
2023-05-02T12:07:12.314Z,42.12
2023-05-02T12:08:10.827Z,42.02
2023-05-02T12:09:11.829Z,42.06
2023-05-02T12:10:11.874Z,42.01
2023-05-02T12:11:11.851Z,41.88
2023-05-02T12:12:11.855Z,41.86
2023-05-02T12:13:11.992Z,41.85
2023-05-02T12:14:11.889Z,41.76
2023-05-02T12:15:10.892Z,41.82
2023-05-02T12:16:11.922Z,41.78
2023-05-02T12:17:11.904Z,41.82
2023-05-02T12:18:12.003Z,41.89
2023-05-02T12:19:10.896Z,41.77
2023-05-02T12:20:12.007Z,41.65
2023-05-02T12:21:11.898Z,41.59
2023-05-02T12:22:10.933Z,41.90
2023-05-02T12:23:10.935Z,41.87
2023-05-02T12:24:10.952Z,42.05
2023-05-02T12:25:10.947Z,42.20
2023-05-02T12:26:10.978Z,42.23
2023-05-02T12:27:11.003Z,42.22
2023-05-02T12:28:12.036Z,42.12
2023-05-02T12:29:12.031Z,42.00
2023-05-02T12:30:11.136Z,41.77
2023-05-02T12:31:11.155Z,41.89
2023-05-02T12:32:12.112Z,42.02
2023-05-02T12:33:12.113Z,42.05
2023-05-02T12:34:12.110Z,41.78
2023-05-02T12:35:11.114Z,41.93
2023-05-02T12:36:12.118Z,41.74
2023-05-02T12:37:12.162Z,42.06
2023-05-02T12:38:11.171Z,42.05
2023-05-02T12:39:12.227Z,42.20
2023-05-02T12:40:11.209Z,42.64
2023-05-02T12:41:12.213Z,42.79
2023-05-02T12:42:12.292Z,43.93
2023-05-02T12:43:11.304Z,43.72
2023-05-02T12:44:12.311Z,43.58
2023-05-02T12:45:11.335Z,43.86
2023-05-02T12:46:11.457Z,44.15
2023-05-02T12:47:12.421Z,44.49
2023-05-02T12:48:12.449Z,44.79
2023-05-02T12:49:11.468Z,44.65
2023-05-02T12:50:12.493Z,44.78
2023-05-02T12:51:12.540Z,44.65
2023-05-02T12:52:12.540Z,44.45